Main page
METAR-TAF:

METAR-TAF

Airports :

Nouakchott, Mauritania

Nouakchott–Oumtounsy International Airport

latitude: 18-18-36N, longitude: 015-58-11W, elevation: 3 m

Current weather observation

The report was made 22 minutes ago, at 08:30 UTC
Wind 19 kt from the North
Temperature 23°C
Humidity 65%
Pressure 1013 hPa
Visibility: 8000 m

METAR: GQNO 300830Z 36019KT 8000 NSC 23/16 Q1013 NOSIG

Time: 08:52 (08:52 UTC)

Forecast

The report was made 3 hours and 52 minutes ago, at 05:00 UTC
Forecast valid from 30 at 06 UTC to 01 at 12 UTC
Wind 14 kt from the North
Visibility: 7000 m
Probability 30% :
Temporary
from 30 at 06 UTC to 30 at 09 UTC
Broken clouds at a height of 1000 ft

TAF: GQNO 300500Z 3006/0112 36014KT 7000 NSC PROB30 TEMPO 3006/3009 BKN010

Weather observations and forecasts of more than 4000 airports (METAR and TAF reports).

The available stations are represented by yellow and red dots on the map.

Hover mouse over dot to see the name of the station.

Then click to see weather observations and forecasts.

To change the map : click on the green buttons with a black cross to zoom in, on the green button with a dash to zoom out, or on the green arrows for adjacent maps.


METAR-TAF: